Time,TemperatureF,DewpointF,PressureIn,WindDirection,WindDirectionDegrees,WindSpeedMPH,WindSpeedGustMPH,Humidity,HourlyPrecipIn,Conditions,Clouds,dailyrainin,SoftwareType,DateUTC
2013-06-02 00:01:00,73.1,64.0,29.87,SW,217,3.2,4.3,73,0.00,,---,0.00,VWS V14.01,2013-06-02 04:01:00,
2013-06-02 00:06:00,73.0,63.8,29.87,SSW,211,2.5,6.0,73,0.00,,---,0.00,VWS V14.01,2013-06-02 04:06:00,
2013-06-02 00:11:00,72.2,63.0,29.87,SSW,212,1.4,3.1,73,0.00,,---,0.00,VWS V14.01,2013-06-02 04:11:00,
2013-06-02 00:16:00,72.5,63.2,29.86,West,266,4.2,7.3,73,0.00,,---,0.00,VWS V14.01,2013-06-02 04:16:00,
2013-06-02 00:21:00,73.2,63.8,29.86,WSW,238,3.7,4.9,72,0.00,,---,0.00,VWS V14.01,2013-06-02 04:21:00,
2013-06-02 00:26:00,72.6,63.2,29.86,SSE,153,2.3,4.6,72,0.00,,---,0.00,VWS V14.01,2013-06-02 04:26:00,
2013-06-02 00:31:00,73.6,64.2,29.86,SSW,210,3.2,4.3,72,44.95,,---,0.00,VWS V14.01,2013-06-02 04:31:00,
2013-06-02 00:36:00,72.4,63.0,29.86,SSW,194,3.6,4.2,72,0.00,,---,0.00,VWS V14.01,2013-06-02 04:36:00,
2013-06-02 00:41:00,72.5,63.1,29.86,South,186,5.8,13.8,72,0.00,,---,0.00,VWS V14.01,2013-06-02 04:41:00,
2013-06-02 00:46:00,72.9,63.4,29.85,SSW,210,4.0,7.3,72,0.00,,---,0.00,VWS V14.01,2013-06-02 04:46:00,
2013-06-02 00:51:00,72.4,62.9,29.86,WSW,238,7.2,8.2,72,0.00,,---,0.00,VWS V14.01,2013-06-02 04:51:00,
2013-06-02 00:56:00,73.1,63.4,29.85,SSE,165,7.4,12.2,72,0.00,,---,0.00,VWS V14.01,2013-06-02 04:56:00,
2013-06-02 01:01:00,72.4,62.7,29.85,SW,219,10.0,10.4,72,0.00,,---,0.00,VWS V14.01,2013-06-02 05:01:00,
2013-06-02 01:06:00,73.8,63.9,29.85,SW,228,2.9,3.6,71,0.00,,---,0.00,VWS V14.01,2013-06-02 05:06:00,
2013-06-02 01:10:00,73.4,63.5,29.85,WSW,246,8.9,10.4,71,0.00,,---,0.00,VWS V14.01,2013-06-02 05:10:00,
2013-06-02 01:15:00,72.5,62.7,29.85,SW,236,7.6,9.6,71,0.00,,---,0.00,VWS V14.01,2013-06-02 05:15:00,
2013-06-02 01:20:00,73.3,63.5,29.85,SW,225,6.6,7.6,71,0.00,,---,0.00,VWS V14.01,2013-06-02 05:20:00,
2013-06-02 01:25:00,73.0,63.2,29.84,SW,225,6.5,9.3,71,0.00,,---,0.00,VWS V14.01,2013-06-02 05:25:00,
2013-06-02 01:30:00,72.8,63.1,29.85,West,263,5.6,6.8,72,50.37,,---,0.00,VWS V14.01,2013-06-02 05:30:00,
2013-06-02 01:35:00,72.5,62.8,29.84,WSW,246,4.4,4.4,72,0.00,,---,0.00,VWS V14.01,2013-06-02 05:35:00,
2013-06-02 01:40:00,72.6,63.1,29.84,SSW,201,3.2,6.9,72,0.00,,---,0.00,VWS V14.01,2013-06-02 05:40:00,
2013-06-02 01:45:00,72.1,62.6,29.84,SSW,204,4.7,8.8,72,0.00,,---,0.00,VWS V14.01,2013-06-02 05:45:00,
2013-06-02 01:50:00,72.4,63.0,29.84,West,269,3.9,6.6,72,0.00,,---,0.00,VWS V14.01,2013-06-02 05:50:00,
2013-06-02 01:55:00,72.3,62.9,29.84,SW,228,6.6,6.6,72,0.00,,---,0.00,VWS V14.01,2013-06-02 05:55:00,
2013-06-02 02:00:00,72.1,62.7,29.84,WNW,288,5.5,6.0,72,0.00,,---,0.00,VWS V14.01,2013-06-02 06:00:00,
2013-06-02 02:05:00,72.8,63.5,29.84,WSW,248,2.9,6.1,73,0.00,,---,0.00,VWS V14.01,2013-06-02 06:05:00,
2013-06-02 02:10:00,70.7,61.6,29.84,South,180,7.0,7.0,73,0.00,,---,0.00,VWS V14.01,2013-06-02 06:10:00,
2013-06-02 02:15:00,72.3,63.2,29.84,South,173,5.7,6.3,73,0.00,,---,0.00,VWS V14.01,2013-06-02 06:15:00,
2013-06-02 02:20:00,71.1,62.1,29.83,SW,225,2.5,4.7,73,0.00,,---,0.00,VWS V14.01,2013-06-02 06:20:00,
2013-06-02 02:25:00,72.4,63.5,29.84,SW,235,4.3,5.5,74,0.00,,---,0.00,VWS V14.01,2013-06-02 06:25:00,
2013-06-02 02:30:00,71.3,62.5,29.83,SSW,195,5.2,6.9,74,50.37,,---,0.00,VWS V14.01,2013-06-02 06:30:00,
2013-06-02 02:35:00,71.5,62.8,29.83,SSW,201,4.3,4.3,74,0.00,,---,0.00,VWS V14.01,2013-06-02 06:35:00,
2013-06-02 02:40:00,71.7,63.1,29.83,SW,228,3.4,9.3,74,0.00,,---,0.00,VWS V14.01,2013-06-02 06:40:00,
2013-06-02 02:45:00,71.4,62.8,29.83,SW,221,7.1,7.1,74,0.00,,---,0.00,VWS V14.01,2013-06-02 06:45:00,
2013-06-02 02:50:00,71.7,63.1,29.83,SW,228,2.7,9.4,74,0.00,,---,0.00,VWS V14.01,2013-06-02 06:50:00,
2013-06-02 02:55:00,72.2,63.7,29.83,South,172,4.6,4.6,74,0.00,,---,0.00,VWS V14.01,2013-06-02 06:55:00,
2013-06-02 03:00:00,71.8,63.3,29.83,SSW,201,4.4,9.7,75,0.00,,---,0.00,VWS V14.01,2013-06-02 07:00:00,
2013-06-02 03:05:00,71.5,63.2,29.82,South,191,5.0,8.3,75,75.68,,---,0.00,VWS V14.01,2013-06-02 07:05:00,
2013-06-02 03:10:00,71.3,63.0,29.82,SW,232,5.9,11.8,75,0.00,,---,0.00,VWS V14.01,2013-06-02 07:10:00,
2013-06-02 03:15:00,71.1,63.0,29.82,SSW,198,4.3,7.7,76,0.00,,---,0.00,VWS V14.01,2013-06-02 07:15:00,
2013-06-02 03:20:00,71.1,63.1,29.82,SSW,193,4.5,7.6,76,0.00,,---,0.00,VWS V14.01,2013-06-02 07:20:00,
2013-06-02 03:25:00,70.3,62.4,29.82,SW,232,7.0,9.1,76,0.00,,---,0.00,VWS V14.01,2013-06-02 07:25:00,
2013-06-02 03:30:00,71.0,63.2,29.83,WSW,239,2.4,6.0,76,0.00,,---,0.00,VWS V14.01,2013-06-02 07:30:00,
2013-06-02 03:35:00,71.0,63.3,29.82,SSW,205,0.9,4.5,77,0.00,,---,0.00,VWS V14.01,2013-06-02 07:35:00,
2013-06-02 03:40:00,70.8,63.3,29.83,SSW,211,6.5,6.5,77,0.00,,---,0.00,VWS V14.01,2013-06-02 07:40:00,
2013-06-02 03:45:00,70.9,63.7,29.83,WSW,248,3.2,9.3,78,0.00,,---,0.00,VWS V14.01,2013-06-02 07:45:00,
2013-06-02 03:50:00,70.6,63.5,29.83,SW,221,3.5,5.1,78,0.00,,---,0.00,VWS V14.01,2013-06-02 07:50:00,
2013-06-02 03:55:00,70.3,63.3,29.83,SW,226,5.8,6.8,78,0.00,,---,0.00,VWS V14.01,2013-06-02 07:55:00,
2013-06-02 04:00:00,70.5,63.8,29.82,WSW,240,6.8,8.9,79,0.00,,---,0.00,VWS V14.01,2013-06-02 08:00:00,
2013-06-02 04:05:00,71.4,64.7,29.83,WSW,255,3.4,7.8,79,0.00,,---,0.00,VWS V14.01,2013-06-02 08:05:00,
2013-06-02 04:10:00,70.6,64.1,29.82,West,276,6.0,6.8,80,0.00,,---,0.00,VWS V14.01,2013-06-02 08:10:00,
2013-06-02 04:15:00,70.8,64.4,29.82,SSW,207,6.6,7.5,80,0.00,,---,0.00,VWS V14.01,2013-06-02 08:15:00,
2013-06-02 04:20:00,71.0,64.6,29.82,WSW,246,4.6,4.6,80,0.00,,---,0.00,VWS V14.01,2013-06-02 08:20:00,
2013-06-02 04:25:00,70.1,64.0,29.82,SW,229,7.2,7.2,81,0.00,,---,0.00,VWS V14.01,2013-06-02 08:25:00,
2013-06-02 04:30:00,70.4,64.3,29.82,SW,226,5.2,5.2,81,0.00,,---,0.00,VWS V14.01,2013-06-02 08:30:00,
2013-06-02 04:35:00,70.5,64.6,29.82,SSW,211,6.1,8.3,82,0.00,,---,0.00,VWS V14.01,2013-06-02 08:35:00,
2013-06-02 04:40:00,70.5,64.7,29.82,WSW,240,4.5,6.2,82,0.00,,---,0.00,VWS V14.01,2013-06-02 08:40:00,
2013-06-02 04:45:00,70.8,65.1,29.82,SSE,159,2.4,6.0,82,0.00,,---,0.00,VWS V14.01,2013-06-02 08:45:00,
2013-06-02 04:50:00,70.6,64.9,29.82,SW,231,2.5,6.0,82,0.00,,---,0.00,VWS V14.01,2013-06-02 08:50:00,
2013-06-02 04:55:00,70.5,65.0,29.83,WSW,255,2.8,7.9,83,50.37,,---,0.00,VWS V14.01,2013-06-02 08:55:00,
2013-06-02 05:00:00,70.0,64.6,29.83,WSW,238,7.1,8.6,83,0.00,,---,0.00,VWS V14.01,2013-06-02 09:00:00,
2013-06-02 05:05:00,70.5,65.2,29.82,SSE,153,4.1,7.0,83,0.00,,---,0.00,VWS V14.01,2013-06-02 09:05:00,
2013-06-02 05:10:00,70.1,64.9,29.82,SSW,210,4.7,4.7,84,0.00,,---,0.00,VWS V14.01,2013-06-02 09:10:00,
2013-06-02 05:15:00,70.5,65.4,29.82,SSW,198,5.0,5.8,84,0.00,,---,0.00,VWS V14.01,2013-06-02 09:15:00,
2013-06-02 05:20:00,70.5,65.5,29.82,South,180,7.5,8.3,84,0.00,,---,0.00,VWS V14.01,2013-06-02 09:20:00,
2013-06-02 05:25:00,69.4,64.4,29.82,WSW,253,4.9,7.3,84,0.00,,---,0.00,VWS V14.01,2013-06-02 09:25:00,
2013-06-02 05:30:00,69.4,64.4,29.82,SW,215,5.3,8.0,84,0.00,,---,0.00,VWS V14.01,2013-06-02 09:30:00,
2013-06-02 05:35:00,69.6,64.6,29.82,SSW,195,4.9,11.3,84,0.00,,---,0.00,VWS V14.01,2013-06-02 09:35:00,
2013-06-02 05:40:00,69.3,64.3,29.82,South,183,3.1,6.1,84,0.00,,---,0.00,VWS V14.01,2013-06-02 09:40:00,
2013-06-02 05:45:00,70.6,65.6,29.82,South,172,10.2,10.4,84,0.00,,---,0.00,VWS V14.01,2013-06-02 09:45:00,
2013-06-02 05:50:00,69.2,64.2,29.82,South,174,4.5,5.2,84,0.00,,---,0.00,VWS V14.01,2013-06-02 09:50:00,
2013-06-02 05:55:00,69.5,64.5,29.82,SW,232,3.9,5.5,84,52.80,,---,0.00,VWS V14.01,2013-06-02 09:55:00,
2013-06-02 06:00:00,69.3,64.4,29.81,WSW,255,3.8,6.6,84,0.00,,---,0.00,VWS V14.01,2013-06-02 10:00:00,
2013-06-02 06:05:00,70.6,65.6,29.82,WSW,242,5.4,5.4,84,0.00,,---,0.00,VWS V14.01,2013-06-02 10:05:00,
2013-06-02 06:10:00,70.0,64.8,29.82,SW,229,4.9,8.0,84,0.00,,---,0.00,VWS V14.01,2013-06-02 10:10:00,
2013-06-02 06:15:00,70.4,65.2,29.82,South,180,3.8,6.2,84,0.00,,---,0.00,VWS V14.01,2013-06-02 10:15:00,
2013-06-02 06:20:00,70.2,64.9,29.82,WSW,248,4.9,8.1,83,0.00,,---,0.00,VWS V14.01,2013-06-02 10:20:00,
2013-06-02 06:24:00,70.5,65.1,29.82,SW,231,7.1,7.7,83,0.00,,---,0.00,VWS V14.01,2013-06-02 10:24:00,
2013-06-02 06:29:00,70.1,64.6,29.82,WSW,239,9.3,9.6,83,0.00,,---,0.00,VWS V14.01,2013-06-02 10:29:00,
2013-06-02 06:34:00,70.6,64.9,29.82,SSW,198,2.7,5.7,82,0.00,,---,0.00,VWS V14.01,2013-06-02 10:34:00,
2013-06-02 06:39:00,70.6,64.9,29.82,South,191,0.8,2.8,82,0.00,,---,0.00,VWS V14.01,2013-06-02 10:39:00,
2013-06-02 06:44:00,71.1,65.0,29.82,SW,225,4.7,11.2,81,0.00,,---,0.00,VWS V14.01,2013-06-02 10:44:00,
2013-06-02 06:49:00,71.1,64.8,29.81,WSW,239,5.5,5.7,80,0.00,,---,0.00,VWS V14.01,2013-06-02 10:49:00,
2013-06-02 06:54:00,71.5,65.0,29.82,SSE,166,5.7,7.5,80,0.00,,---,0.00,VWS V14.01,2013-06-02 10:54:00,
2013-06-02 06:59:00,71.7,64.9,29.81,SW,225,1.4,3.2,79,0.00,,---,0.00,VWS V14.01,2013-06-02 10:59:00,
2013-06-02 07:04:00,71.9,64.8,29.81,SW,231,4.8,7.6,78,0.00,,---,0.00,VWS V14.01,2013-06-02 11:04:00,
2013-06-02 07:09:00,72.1,64.8,29.82,SW,215,4.7,6.3,78,0.00,,---,0.00,VWS V14.01,2013-06-02 11:09:00,
2013-06-02 07:14:00,72.3,64.7,29.82,SSW,197,4.5,4.8,77,0.00,,---,0.00,VWS V14.01,2013-06-02 11:14:00,
2013-06-02 07:19:00,72.1,64.2,29.82,SSE,159,5.2,5.2,76,52.80,,---,0.00,VWS V14.01,2013-06-02 11:19:00,
2013-06-02 07:24:00,72.0,63.8,29.82,SSW,200,6.8,8.0,75,0.00,,---,0.00,VWS V14.01,2013-06-02 11:24:00,
2013-06-02 07:29:00,73.4,65.0,29.82,SW,222,7.1,7.1,75,0.00,,---,0.00,VWS V14.01,2013-06-02 11:29:00,
2013-06-02 07:34:00,73.6,64.8,29.82,West,262,5.7,6.1,74,0.00,,---,0.00,VWS V14.01,2013-06-02 11:34:00,
2013-06-02 07:39:00,73.5,64.4,29.82,SSE,167,4.9,5.5,73,0.00,,---,0.00,VWS V14.01,2013-06-02 11:39:00,
2013-06-02 07:44:00,74.7,65.1,29.82,SW,229,13.6,15.2,72,0.00,,---,0.00,VWS V14.01,2013-06-02 11:44:00,
2013-06-02 07:49:00,73.3,63.3,29.82,WSW,242,11.6,12.2,71,0.00,,---,0.00,VWS V14.01,2013-06-02 11:49:00,
2013-06-02 07:54:00,74.5,64.6,29.82,WSW,243,4.1,4.4,71,0.00,,---,0.00,VWS V14.01,2013-06-02 11:54:00,
2013-06-02 07:59:00,75.3,65.1,29.82,SSW,205,2.8,3.0,70,0.00,,---,0.00,VWS V14.01,2013-06-02 11:59:00,
2013-06-02 08:04:00,74.7,64.2,29.82,WSW,250,9.0,9.0,70,0.00,,---,0.00,VWS V14.01,2013-06-02 12:04:00,
2013-06-02 08:09:00,75.2,64.1,29.82,SW,231,10.6,11.4,68,0.00,,---,0.00,VWS V14.01,2013-06-02 12:09:00,
2013-06-02 08:14:00,74.9,63.9,29.82,SE,138,4.5,4.5,69,0.00,,---,0.00,VWS V14.01,2013-06-02 12:14:00,
2013-06-02 08:19:00,75.7,64.6,29.81,South,188,8.0,8.1,68,0.00,,---,0.00,VWS V14.01,2013-06-02 12:19:00,
2013-06-02 08:24:00,75.4,64.4,29.81,South,172,9.4,12.2,69,0.00,,---,0.00,VWS V14.01,2013-06-02 12:24:00,
2013-06-02 08:29:00,75.8,64.4,29.81,SSW,201,4.5,4.5,68,0.00,,---,0.00,VWS V14.01,2013-06-02 12:29:00,
2013-06-02 08:34:00,75.4,64.2,29.81,WSW,242,3.0,10.4,68,0.00,,---,0.00,VWS V14.01,2013-06-02 12:34:00,
2013-06-02 08:39:00,75.8,63.9,29.81,SW,235,7.8,9.8,67,0.00,,---,0.00,VWS V14.01,2013-06-02 12:39:00,
2013-06-02 08:44:00,75.3,63.5,29.81,SW,224,7.4,8.6,67,0.00,,---,0.00,VWS V14.01,2013-06-02 12:44:00,
2013-06-02 08:49:00,76.7,64.5,29.80,WSW,245,5.5,11.4,66,0.00,,---,0.00,VWS V14.01,2013-06-02 12:49:00,
2013-06-02 08:54:00,77.7,65.2,29.81,NW,318,1.9,8.6,66,0.00,,---,0.00,VWS V14.01,2013-06-02 12:54:00,
2013-06-02 08:59:00,76.5,63.7,29.80,WSW,246,10.2,12.7,65,0.00,,---,0.00,VWS V14.01,2013-06-02 12:59:00,
2013-06-02 09:04:00,77.9,65.1,29.80,SW,229,4.8,6.8,65,0.00,,---,0.00,VWS V14.01,2013-06-02 13:04:00,
2013-06-02 09:09:00,78.1,64.9,29.80,South,187,8.5,8.5,64,0.00,,---,0.00,VWS V14.01,2013-06-02 13:09:00,
2013-06-02 09:14:00,78.8,65.2,29.80,SSW,207,4.0,8.5,63,0.00,,---,0.00,VWS V14.01,2013-06-02 13:14:00,
2013-06-02 09:19:00,78.0,63.5,29.80,SSW,195,3.2,11.4,61,0.00,,---,0.00,VWS V14.01,2013-06-02 13:19:00,
2013-06-02 09:24:00,79.7,64.6,29.80,SW,222,9.9,11.4,60,0.00,,---,0.00,VWS V14.01,2013-06-02 13:24:00,
2013-06-02 09:29:00,79.0,63.8,29.79,West,266,6.3,13.9,60,0.00,,---,0.00,VWS V14.01,2013-06-02 13:29:00,
2013-06-02 09:34:00,79.4,63.8,29.79,WSW,242,9.6,13.7,59,0.00,,---,0.00,VWS V14.01,2013-06-02 13:34:00,
2013-06-02 09:39:00,80.0,64.6,29.79,SW,235,11.4,14.2,59,0.00,,---,0.00,VWS V14.01,2013-06-02 13:39:00,
2013-06-02 09:44:00,79.5,63.0,29.78,South,180,11.1,16.1,57,0.00,,---,0.00,VWS V14.01,2013-06-02 13:44:00,
2013-06-02 09:49:00,79.0,63.5,29.79,SSW,193,12.5,13.5,59,0.00,,---,0.00,VWS V14.01,2013-06-02 13:49:00,
2013-06-02 09:54:00,79.1,63.1,29.79,SE,139,8.3,8.6,58,0.00,,---,0.00,VWS V14.01,2013-06-02 13:54:00,
2013-06-02 09:59:00,80.1,64.2,29.79,SSW,210,15.3,15.3,58,0.00,,---,0.00,VWS V14.01,2013-06-02 13:59:00,
2013-06-02 10:04:00,79.7,63.1,29.79,SW,222,12.0,13.7,57,0.00,,---,0.00,VWS V14.01,2013-06-02 14:04:00,
2013-06-02 10:09:00,80.1,63.3,29.79,South,177,9.5,15.3,56,0.00,,---,0.00,VWS V14.01,2013-06-02 14:09:00,
2013-06-02 10:14:00,80.5,63.7,29.79,West,263,12.7,13.7,57,0.00,,---,0.00,VWS V14.01,2013-06-02 14:14:00,
2013-06-02 10:19:00,80.0,64.0,29.79,WSW,256,8.5,11.4,58,0.00,,---,0.00,VWS V14.01,2013-06-02 14:19:00,
2013-06-02 10:24:00,80.2,63.5,29.79,South,174,4.8,13.9,57,0.00,,---,0.00,VWS V14.01,2013-06-02 14:24:00,
2013-06-02 10:29:00,80.0,62.7,29.79,NE,48,13.6,15.7,56,0.00,,---,0.00,VWS V14.01,2013-06-02 14:29:00,
2013-06-02 10:34:00,80.2,62.9,29.79,WSW,239,6.5,9.7,56,0.00,,---,0.00,VWS V14.01,2013-06-02 14:34:00,
2013-06-02 10:39:00,80.4,62.8,29.79,WSW,253,6.6,14.7,55,0.00,,---,0.00,VWS V14.01,2013-06-02 14:39:00,
2013-06-02 10:44:00,80.4,62.4,29.79,West,263,5.8,13.7,54,0.00,,---,0.00,VWS V14.01,2013-06-02 14:44:00,
2013-06-02 10:49:00,80.8,62.5,29.79,WSW,243,12.9,16.5,54,0.00,,---,0.00,VWS V14.01,2013-06-02 14:49:00,
2013-06-02 10:54:00,80.4,62.5,29.78,SW,215,6.5,8.6,54,0.00,,---,0.00,VWS V14.01,2013-06-02 14:54:00,
2013-06-02 10:59:00,81.2,62.9,29.78,SSW,210,6.8,14.5,54,0.00,,---,0.00,VWS V14.01,2013-06-02 14:59:00,
2013-06-02 11:04:00,82.4,63.7,29.78,SSE,163,6.2,10.4,53,0.00,,---,0.00,VWS V14.01,2013-06-02 15:04:00,
2013-06-02 11:09:00,82.7,64.0,29.78,SSE,158,3.6,6.3,53,0.00,,---,0.00,VWS V14.01,2013-06-02 15:09:00,
2013-06-02 11:14:00,81.6,63.0,29.79,ESE,121,10.4,16.1,53,0.00,,---,0.00,VWS V14.01,2013-06-02 15:14:00,
2013-06-02 11:19:00,81.5,62.2,29.79,South,179,8.0,11.0,52,0.00,,---,0.00,VWS V14.01,2013-06-02 15:19:00,
2013-06-02 11:24:00,81.1,62.2,29.79,WSW,243,9.7,9.7,53,0.00,,---,0.00,VWS V14.01,2013-06-02 15:24:00,
2013-06-02 11:29:00,81.4,63.0,29.78,West,259,7.0,13.0,54,0.00,,---,0.00,VWS V14.01,2013-06-02 15:29:00,
2013-06-02 11:34:00,81.4,63.2,29.79,WSW,246,5.4,14.6,54,0.00,,---,0.00,VWS V14.01,2013-06-02 15:34:00,
2013-06-02 11:39:00,81.3,62.8,29.79,WSW,240,10.6,15.4,53,0.00,,---,0.00,VWS V14.01,2013-06-02 15:39:00,
2013-06-02 11:44:00,81.3,62.8,29.78,SW,214,8.2,13.7,54,0.00,,---,0.00,VWS V14.01,2013-06-02 15:44:00,
2013-06-02 11:49:00,81.5,62.2,29.78,SW,214,8.6,14.5,52,0.00,,---,0.00,VWS V14.01,2013-06-02 15:49:00,
2013-06-02 11:54:00,80.9,61.6,29.78,WSW,256,10.7,18.3,52,0.00,,---,0.00,VWS V14.01,2013-06-02 15:54:00,
2013-06-02 11:59:00,82.0,62.8,29.78,SW,228,16.0,16.0,52,0.00,,---,0.00,VWS V14.01,2013-06-02 15:59:00,
2013-06-02 12:04:00,82.4,62.2,29.78,WSW,238,13.3,16.4,50,0.00,,---,0.00,VWS V14.01,2013-06-02 16:04:00,
2013-06-02 12:09:00,82.6,63.1,29.78,WSW,257,11.2,11.2,52,0.00,,---,0.00,VWS V14.01,2013-06-02 16:09:00,
2013-06-02 12:14:00,81.7,60.4,29.78,WSW,249,9.3,16.7,48,0.00,,---,0.00,VWS V14.01,2013-06-02 16:14:00,
2013-06-02 12:19:00,81.4,61.5,29.78,WSW,256,6.4,7.0,51,0.00,,---,0.00,VWS V14.01,2013-06-02 16:19:00,
2013-06-02 12:24:00,82.0,61.9,29.78,SW,224,5.9,6.5,51,0.00,,---,0.00,VWS V14.01,2013-06-02 16:24:00,
2013-06-02 12:29:00,82.3,62.0,29.78,West,278,7.5,13.3,50,0.00,,---,0.00,VWS V14.01,2013-06-02 16:29:00,
2013-06-02 12:34:00,82.9,62.7,29.78,West,271,3.9,4.7,50,52.80,,---,0.00,VWS V14.01,2013-06-02 16:34:00,
2013-06-02 12:39:00,82.1,61.8,29.78,SW,225,2.4,4.8,50,0.00,,---,0.00,VWS V14.01,2013-06-02 16:39:00,
2013-06-02 12:44:00,82.1,61.8,29.78,WSW,255,10.8,13.8,50,0.00,,---,0.00,VWS V14.01,2013-06-02 16:44:00,
2013-06-02 12:48:00,82.6,62.5,29.78,South,188,5.3,9.4,51,0.00,,---,0.00,VWS V14.01,2013-06-02 16:48:00,
2013-06-02 12:53:00,82.0,62.0,29.78,SSW,212,2.9,6.5,51,0.00,,---,0.00,VWS V14.01,2013-06-02 16:53:00,
2013-06-02 12:58:00,83.0,62.8,29.77,SSW,202,5.2,5.2,50,0.00,,---,0.00,VWS V14.01,2013-06-02 16:58:00,
2013-06-02 13:03:00,83.7,62.8,29.77,SW,222,5.2,7.9,50,0.00,,---,0.00,VWS V14.01,2013-06-02 17:03:00,
2013-06-02 13:08:00,84.3,63.1,29.77,WSW,245,12.6,16.3,49,0.00,,---,0.00,VWS V14.01,2013-06-02 17:08:00,
2013-06-02 13:13:00,83.4,62.0,29.77,WNW,288,2.9,7.3,49,0.00,,---,0.00,VWS V14.01,2013-06-02 17:13:00,
2013-06-02 13:18:00,83.6,61.7,29.77,WSW,256,6.6,9.5,48,0.00,,---,0.00,VWS V14.01,2013-06-02 17:18:00,
2013-06-02 13:23:00,83.5,61.9,29.77,SW,228,7.0,10.3,48,0.00,,---,0.00,VWS V14.01,2013-06-02 17:23:00,
2013-06-02 13:28:00,84.0,62.8,29.76,SW,235,4.3,4.3,49,0.00,,---,0.00,VWS V14.01,2013-06-02 17:28:00,
2013-06-02 13:33:00,83.2,62.3,29.76,SW,215,6.1,6.1,49,52.80,,---,0.00,VWS V14.01,2013-06-02 17:33:00,
2013-06-02 13:38:00,82.7,62.3,29.76,NW,307,3.7,5.3,50,0.00,,---,0.00,VWS V14.01,2013-06-02 17:38:00,
2013-06-02 13:43:00,84.5,63.3,29.76,WSW,252,1.9,4.0,49,0.00,,---,0.00,VWS V14.01,2013-06-02 17:43:00,
2013-06-02 13:48:00,83.6,62.9,29.76,WSW,246,11.2,12.2,50,0.00,,---,0.00,VWS V14.01,2013-06-02 17:48:00,
2013-06-02 13:53:00,84.5,62.7,29.76,SW,226,9.8,9.8,48,0.00,,---,0.00,VWS V14.01,2013-06-02 17:53:00,
2013-06-02 13:58:00,84.7,62.5,29.76,WSW,256,14.0,14.0,47,0.00,,---,0.00,VWS V14.01,2013-06-02 17:58:00,
2013-06-02 14:03:00,84.4,63.0,29.76,SSW,211,7.0,10.8,49,0.00,,---,0.00,VWS V14.01,2013-06-02 18:03:00,
2013-06-02 14:08:00,85.1,62.7,29.76,SSW,205,12.1,12.8,47,0.00,,---,0.00,VWS V14.01,2013-06-02 18:08:00,
2013-06-02 14:13:00,84.4,61.5,29.75,WSW,239,9.4,9.4,46,0.00,,---,0.00,VWS V14.01,2013-06-02 18:13:00,
2013-06-02 14:18:00,84.6,61.7,29.75,WSW,243,4.5,4.5,46,0.00,,---,0.00,VWS V14.01,2013-06-02 18:18:00,
2013-06-02 14:23:00,83.7,61.3,29.75,WSW,243,3.2,3.2,47,0.00,,---,0.00,VWS V14.01,2013-06-02 18:23:00,
2013-06-02 14:28:00,84.5,62.0,29.75,West,262,4.1,6.4,47,0.00,,---,0.00,VWS V14.01,2013-06-02 18:28:00,
2013-06-02 14:33:00,83.8,62.0,29.75,WSW,248,3.0,3.0,48,52.80,,---,0.00,VWS V14.01,2013-06-02 18:33:00,
2013-06-02 14:38:00,84.5,62.1,29.75,WSW,250,7.3,7.3,47,0.00,,---,0.00,VWS V14.01,2013-06-02 18:38:00,
2013-06-02 14:43:00,84.6,62.3,29.75,SSW,194,7.0,8.0,47,0.00,,---,0.00,VWS V14.01,2013-06-02 18:43:00,
2013-06-02 14:48:00,84.4,61.2,29.75,West,262,8.7,14.7,46,0.00,,---,0.00,VWS V14.01,2013-06-02 18:48:00,
2013-06-02 14:53:00,85.3,62.7,29.75,SW,214,2.5,7.3,47,0.00,,---,0.00,VWS V14.01,2013-06-02 18:53:00,
2013-06-02 14:58:00,85.4,62.5,29.74,WSW,240,4.7,11.8,46,0.00,,---,0.00,VWS V14.01,2013-06-02 18:58:00,
2013-06-02 15:03:00,84.3,61.1,29.74,West,262,13.5,13.5,46,0.00,,---,0.00,VWS V14.01,2013-06-02 19:03:00,
2013-06-02 15:08:00,85.5,62.0,29.74,SW,236,5.5,6.8,45,0.00,,---,0.00,VWS V14.01,2013-06-02 19:08:00,
2013-06-02 15:13:00,84.2,60.5,29.74,West,264,8.9,14.5,45,0.00,,---,0.00,VWS V14.01,2013-06-02 19:13:00,
2013-06-02 15:18:00,84.8,62.1,29.74,WSW,243,10.4,10.7,47,0.00,,---,0.00,VWS V14.01,2013-06-02 19:18:00,
2013-06-02 15:23:00,83.7,61.3,29.74,WSW,256,7.6,12.4,47,0.00,,---,0.00,VWS V14.01,2013-06-02 19:23:00,
2013-06-02 15:28:00,85.3,62.4,29.74,WSW,239,4.4,6.3,46,0.00,,---,0.00,VWS V14.01,2013-06-02 19:28:00,
2013-06-02 15:33:00,85.2,62.7,29.74,SW,218,1.5,6.3,47,0.00,,---,0.00,VWS V14.01,2013-06-02 19:33:00,
2013-06-02 15:38:00,84.6,61.6,29.74,SSW,197,4.3,8.8,46,0.00,,---,0.00,VWS V14.01,2013-06-02 19:38:00,
2013-06-02 15:43:00,84.9,62.0,29.74,ENE,65,5.1,8.8,46,0.00,,---,0.00,VWS V14.01,2013-06-02 19:43:00,
2013-06-02 15:48:00,85.5,62.1,29.74,SSW,200,12.0,14.3,46,0.00,,---,0.00,VWS V14.01,2013-06-02 19:48:00,
2013-06-02 15:53:00,84.6,61.6,29.74,SE,142,12.4,16.1,46,0.00,,---,0.00,VWS V14.01,2013-06-02 19:53:00,
2013-06-02 15:58:00,84.7,62.0,29.74,South,190,10.9,12.6,47,0.00,,---,0.00,VWS V14.01,2013-06-02 19:58:00,
2013-06-02 16:03:00,84.6,62.5,29.74,SW,226,14.1,14.1,48,0.00,,---,0.00,VWS V14.01,2013-06-02 20:03:00,
2013-06-02 16:08:00,83.6,61.1,29.73,SSW,194,10.2,11.4,47,0.00,,---,0.00,VWS V14.01,2013-06-02 20:08:00,
2013-06-02 16:13:00,83.0,61.1,29.73,SSW,205,7.1,9.4,48,0.00,,---,0.00,VWS V14.01,2013-06-02 20:13:00,
2013-06-02 16:18:00,85.0,63.2,29.73,WSW,246,4.5,7.5,48,0.00,,---,0.00,VWS V14.01,2013-06-02 20:18:00,
2013-06-02 16:23:00,85.4,64.0,29.73,SSW,193,8.2,9.6,49,0.00,,---,0.00,VWS V14.01,2013-06-02 20:23:00,
2013-06-02 16:28:00,83.9,63.6,29.73,SSW,207,9.1,11.5,51,0.00,,---,0.00,VWS V14.01,2013-06-02 20:28:00,
2013-06-02 16:33:00,82.8,63.3,29.73,South,187,6.0,14.7,52,0.00,,---,0.00,VWS V14.01,2013-06-02 20:33:00,
2013-06-02 16:38:00,82.4,62.6,29.74,South,177,9.3,15.9,51,0.00,,---,0.00,VWS V14.01,2013-06-02 20:38:00,
2013-06-02 16:43:00,83.8,64.6,29.73,SSE,160,8.1,18.0,52,0.00,,---,0.00,VWS V14.01,2013-06-02 20:43:00,
2013-06-02 16:48:00,83.4,64.4,29.73,WSW,252,5.2,12.7,53,0.00,,---,0.00,VWS V14.01,2013-06-02 20:48:00,
2013-06-02 16:53:00,82.1,63.8,29.73,SSW,204,13.2,15.7,54,0.00,,---,0.00,VWS V14.01,2013-06-02 20:53:00,
2013-06-02 16:58:00,81.2,63.9,29.73,South,170,9.2,12.1,56,0.00,,---,0.00,VWS V14.01,2013-06-02 20:58:00,
2013-06-02 17:03:00,82.0,64.8,29.73,SW,233,5.7,16.0,56,0.00,,---,0.00,VWS V14.01,2013-06-02 21:03:00,
2013-06-02 17:08:00,81.4,65.0,29.74,South,188,12.9,14.7,58,0.00,,---,0.00,VWS V14.01,2013-06-02 21:08:00,
2013-06-02 17:13:00,80.4,64.3,29.73,SSE,167,10.3,15.8,58,0.00,,---,0.00,VWS V14.01,2013-06-02 21:13:00,
2013-06-02 17:18:00,80.6,64.9,29.73,SSW,193,7.0,11.0,59,0.00,,---,0.00,VWS V14.01,2013-06-02 21:18:00,
2013-06-02 17:23:00,80.9,65.3,29.73,SSW,195,10.0,12.4,59,0.00,,---,0.00,VWS V14.01,2013-06-02 21:23:00,
2013-06-02 17:28:00,81.1,65.9,29.73,SSW,193,6.7,11.6,60,0.00,,---,0.00,VWS V14.01,2013-06-02 21:28:00,
2013-06-02 17:33:00,80.4,65.4,29.73,SSW,202,5.1,6.5,60,0.00,,---,0.00,VWS V14.01,2013-06-02 21:33:00,
2013-06-02 17:38:00,80.1,65.5,29.74,SW,236,2.9,10.5,61,0.00,,---,0.00,VWS V14.01,2013-06-02 21:38:00,
2013-06-02 17:43:00,80.0,65.6,29.74,SSW,200,8.8,14.2,62,0.00,,---,0.00,VWS V14.01,2013-06-02 21:43:00,
2013-06-02 17:48:00,80.1,66.0,29.74,SSW,212,7.2,15.4,62,0.00,,---,0.00,VWS V14.01,2013-06-02 21:48:00,
2013-06-02 17:53:00,80.1,66.7,29.74,SW,214,4.5,8.9,64,0.00,,---,0.00,VWS V14.01,2013-06-02 21:53:00,
2013-06-02 17:58:00,79.9,66.4,29.74,South,176,11.5,14.5,64,0.00,,---,0.00,VWS V14.01,2013-06-02 21:58:00,
2013-06-02 18:03:00,79.9,66.7,29.74,SSW,195,7.8,11.7,64,0.00,,---,0.00,VWS V14.01,2013-06-02 22:03:00,
2013-06-02 18:08:00,79.3,66.3,29.74,SSE,162,7.9,9.3,65,0.00,,---,0.00,VWS V14.01,2013-06-02 22:08:00,
2013-06-02 18:13:00,79.3,66.3,29.74,SSW,200,9.3,11.8,65,0.00,,---,0.00,VWS V14.01,2013-06-02 22:13:00,
2013-06-02 18:18:00,79.2,66.5,29.74,SSW,193,5.0,5.8,65,0.00,,---,0.00,VWS V14.01,2013-06-02 22:18:00,
2013-06-02 18:23:00,79.1,66.0,29.74,SSE,165,5.7,10.1,64,0.00,,---,0.00,VWS V14.01,2013-06-02 22:23:00,
2013-06-02 18:28:00,79.4,66.0,29.74,SSW,195,5.2,7.3,64,0.00,,---,0.00,VWS V14.01,2013-06-02 22:28:00,
2013-06-02 18:33:00,80.0,65.2,29.74,SSW,207,11.8,13.6,61,0.00,,---,0.00,VWS V14.01,2013-06-02 22:33:00,
2013-06-02 18:38:00,80.1,64.5,29.74,SSW,210,9.0,10.3,59,0.00,,---,0.00,VWS V14.01,2013-06-02 22:38:00,
2013-06-02 18:43:00,79.4,64.2,29.74,South,173,3.6,6.5,60,0.00,,---,0.00,VWS V14.01,2013-06-02 22:43:00,
2013-06-02 18:48:00,78.9,63.5,29.74,SSW,210,11.9,13.6,59,0.00,,---,0.00,VWS V14.01,2013-06-02 22:48:00,
2013-06-02 18:53:00,78.9,63.9,29.74,SSW,194,7.9,11.1,60,0.00,,---,0.00,VWS V14.01,2013-06-02 22:53:00,
2013-06-02 18:58:00,78.2,63.8,29.74,SSW,204,7.5,11.4,61,0.00,,---,0.00,VWS V14.01,2013-06-02 22:58:00,
2013-06-02 19:03:00,78.4,64.6,29.74,SSW,204,9.8,11.9,63,0.00,,---,0.00,VWS V14.01,2013-06-02 23:03:00,
2013-06-02 19:08:00,78.8,65.3,29.74,SSW,207,6.2,7.4,63,0.00,,---,0.00,VWS V14.01,2013-06-02 23:08:00,
2013-06-02 19:13:00,77.5,64.3,29.74,SSW,201,6.8,6.8,64,0.00,,---,0.00,VWS V14.01,2013-06-02 23:13:00,
2013-06-02 19:17:00,77.4,64.4,29.74,SSW,202,4.5,8.9,64,0.00,,---,0.00,VWS V14.01,2013-06-02 23:17:00,
2013-06-02 19:22:00,77.2,64.4,29.74,SW,219,7.5,8.2,65,0.00,,---,0.00,VWS V14.01,2013-06-02 23:22:00,
2013-06-02 19:27:00,77.4,64.9,29.74,South,188,5.6,5.7,65,0.00,,---,0.00,VWS V14.01,2013-06-02 23:27:00,
2013-06-02 19:32:00,76.4,64.0,29.74,South,177,3.1,3.7,66,0.00,,---,0.00,VWS V14.01,2013-06-02 23:32:00,
2013-06-02 19:37:00,77.4,65.2,29.74,SSW,201,2.6,3.4,66,0.00,,---,0.00,VWS V14.01,2013-06-02 23:37:00,
2013-06-02 19:42:00,77.5,65.4,29.74,SSE,155,3.2,4.1,66,0.00,,---,0.00,VWS V14.01,2013-06-02 23:42:00,
2013-06-02 19:47:00,77.0,65.2,29.74,South,179,4.2,4.5,67,0.00,,---,0.00,VWS V14.01,2013-06-02 23:47:00,
2013-06-02 19:52:00,76.5,64.9,29.74,South,174,3.4,3.7,68,0.00,,---,0.00,VWS V14.01,2013-06-02 23:52:00,
2013-06-02 19:57:00,76.1,64.8,29.75,SSW,193,5.2,5.6,68,0.00,,---,0.00,VWS V14.01,2013-06-02 23:57:00,
2013-06-02 20:02:00,77.0,65.6,29.75,SW,221,8.8,8.8,68,0.00,,---,0.00,VWS V14.01,2013-06-03 00:02:00,
2013-06-02 20:07:00,77.3,65.4,29.76,WSW,253,4.4,8.1,67,0.00,,---,0.00,VWS V14.01,2013-06-03 00:07:00,
2013-06-02 20:12:00,76.1,62.2,29.77,WSW,256,7.0,16.3,62,0.00,,---,0.00,VWS V14.01,2013-06-03 00:12:00,
2013-06-02 20:17:00,70.1,62.2,29.77,South,191,14.7,15.2,76,0.03,,---,0.03,VWS V14.01,2013-06-03 00:17:00,
2013-06-02 20:22:00,69.2,64.9,29.77,SW,218,14.9,14.9,86,0.08,,---,0.08,VWS V14.01,2013-06-03 00:22:00,
2013-06-02 20:27:00,69.3,66.6,29.77,SW,224,7.6,11.2,91,0.11,,---,0.11,VWS V14.01,2013-06-03 00:27:00,
2013-06-02 20:32:00,68.7,66.0,29.76,South,188,7.9,7.9,91,0.14,,---,0.14,VWS V14.01,2013-06-03 00:32:00,
2013-06-02 20:37:00,68.8,66.2,29.76,South,183,3.7,5.5,91,0.17,,---,0.17,VWS V14.01,2013-06-03 00:37:00,
2013-06-02 20:42:00,69.5,67.2,29.76,South,177,4.8,5.2,92,0.19,,---,0.19,VWS V14.01,2013-06-03 00:42:00,
2013-06-02 20:47:00,69.2,67.1,29.76,SW,229,5.7,7.5,93,0.21,,---,0.21,VWS V14.01,2013-06-03 00:47:00,
2013-06-02 20:52:00,69.4,67.2,29.76,SW,225,2.9,2.9,93,0.22,,---,0.22,VWS V14.01,2013-06-03 00:52:00,
2013-06-02 20:57:00,69.8,67.7,29.76,SW,233,6.8,6.8,93,0.22,,---,0.22,VWS V14.01,2013-06-03 00:57:00,
2013-06-02 21:02:00,70.3,68.2,29.76,West,259,2.1,2.7,93,0.22,,---,0.22,VWS V14.01,2013-06-03 01:02:00,
2013-06-02 21:07:00,70.5,68.3,29.76,SW,214,6.0,6.2,93,74.88,,---,0.22,VWS V14.01,2013-06-03 01:07:00,
2013-06-02 21:12:00,70.7,68.4,29.76,WSW,238,4.1,4.3,92,0.22,,---,0.22,VWS V14.01,2013-06-03 01:12:00,
2013-06-02 21:17:00,70.5,68.0,29.76,SW,214,4.3,6.2,92,0.20,,---,0.22,VWS V14.01,2013-06-03 01:17:00,
2013-06-02 21:22:00,70.2,67.8,29.76,WSW,257,2.4,6.5,92,0.15,,---,0.22,VWS V14.01,2013-06-03 01:22:00,
2013-06-02 21:27:00,71.4,69.1,29.76,SW,222,2.2,6.1,92,0.11,,---,0.22,VWS V14.01,2013-06-03 01:27:00,
2013-06-02 21:32:00,70.4,68.2,29.76,SSW,205,5.5,5.5,93,0.00,,---,0.22,VWS V14.01,2013-06-03 01:32:00,
2013-06-02 21:36:00,70.7,69.1,29.77,South,188,5.6,6.5,95,0.01,,---,0.22,VWS V14.01,2013-06-03 01:36:00,
2013-06-02 21:37:00,70.3,68.2,29.77,South,186,6.2,6.2,93,0.06,,---,0.22,VWS V14.01,2013-06-03 01:37:00,
2013-06-02 21:42:00,70.9,69.0,29.77,SSW,198,3.4,3.4,94,0.03,,---,0.22,VWS V14.01,2013-06-03 01:42:00,
2013-06-02 21:47:00,70.1,68.5,29.77,SSW,204,7.0,8.6,95,0.01,,---,0.22,VWS V14.01,2013-06-03 01:47:00,
2013-06-02 21:52:00,70.2,68.7,29.77,SSE,163,6.0,8.3,95,0.00,,---,0.22,VWS V14.01,2013-06-03 01:52:00,
2013-06-02 21:57:00,70.2,68.8,29.77,South,174,7.6,7.6,95,0.00,,---,0.22,VWS V14.01,2013-06-03 01:57:00,
2013-06-02 22:02:00,70.0,68.6,29.77,SSW,198,4.3,5.8,95,0.01,,---,0.23,VWS V14.01,2013-06-03 02:02:00,
2013-06-02 22:07:00,70.5,69.1,29.77,SW,219,3.3,8.8,95,0.01,,---,0.23,VWS V14.01,2013-06-03 02:07:00,
2013-06-02 22:12:00,70.5,69.0,29.77,South,174,2.9,9.9,95,0.01,,---,0.23,VWS V14.01,2013-06-03 02:12:00,
2013-06-02 22:17:00,70.2,68.4,29.78,South,184,5.3,12.6,94,0.01,,---,0.23,VWS V14.01,2013-06-03 02:17:00,
2013-06-02 22:22:00,69.8,67.5,29.78,SSW,193,7.6,10.6,92,0.00,,---,0.23,VWS V14.01,2013-06-03 02:22:00,
2013-06-02 22:27:00,69.5,66.8,29.78,SW,235,8.1,11.2,91,0.01,,---,0.23,VWS V14.01,2013-06-03 02:27:00,
2013-06-02 22:32:00,70.5,67.4,29.78,WSW,242,10.6,14.7,90,0.01,,---,0.23,VWS V14.01,2013-06-03 02:32:00,
2013-06-02 22:37:00,69.6,66.4,29.78,SW,224,7.5,11.6,90,0.01,,---,0.23,VWS V14.01,2013-06-03 02:37:00,
2013-06-02 22:42:00,69.6,66.4,29.78,WSW,242,4.4,14.3,90,0.01,,---,0.23,VWS V14.01,2013-06-03 02:42:00,
2013-06-02 22:47:00,70.7,67.1,29.78,SSE,155,3.9,13.2,88,0.00,,---,0.23,VWS V14.01,2013-06-03 02:47:00,
2013-06-02 22:52:00,70.2,66.4,29.78,WSW,238,11.3,14.2,88,0.01,,---,0.23,VWS V14.01,2013-06-03 02:52:00,
2013-06-02 22:57:00,69.7,65.8,29.77,WSW,248,5.2,11.8,87,0.01,,---,0.23,VWS V14.01,2013-06-03 02:57:00,
2013-06-02 23:02:00,70.1,66.0,29.77,SW,229,2.9,6.9,87,0.01,,---,0.23,VWS V14.01,2013-06-03 03:02:00,
2013-06-02 23:07:00,69.6,65.4,29.77,WSW,248,11.2,13.3,86,0.00,,---,0.23,VWS V14.01,2013-06-03 03:07:00,
2013-06-02 23:12:00,69.0,64.6,29.77,West,267,10.2,12.3,86,0.00,,---,0.23,VWS V14.01,2013-06-03 03:12:00,
2013-06-02 23:17:00,69.1,65.1,29.77,WSW,238,7.6,9.6,87,75.13,,---,0.23,VWS V14.01,2013-06-03 03:17:00,
2013-06-02 23:22:00,68.7,65.1,29.78,WSW,242,13.2,13.2,88,0.00,,---,0.23,VWS V14.01,2013-06-03 03:22:00,
2013-06-02 23:27:00,68.4,65.0,29.78,SW,226,6.8,9.8,89,0.00,,---,0.23,VWS V14.01,2013-06-03 03:27:00,
2013-06-02 23:32:00,69.0,65.7,29.78,SW,222,15.5,15.5,89,0.00,,---,0.23,VWS V14.01,2013-06-03 03:32:00,
2013-06-02 23:37:00,68.8,65.4,29.78,WSW,248,11.2,13.6,89,0.00,,---,0.23,VWS V14.01,2013-06-03 03:37:00,
2013-06-02 23:42:00,68.7,65.4,29.78,SW,231,15.7,15.7,89,0.00,,---,0.23,VWS V14.01,2013-06-03 03:42:00,
2013-06-02 23:47:00,68.3,65.1,29.78,SW,217,4.5,8.2,90,0.00,,---,0.23,VWS V14.01,2013-06-03 03:47:00,
2013-06-02 23:52:00,68.3,65.1,29.78,WSW,255,7.7,8.5,90,0.00,,---,0.23,VWS V14.01,2013-06-03 03:52:00,
2013-06-02 23:57:00,69.4,66.3,29.78,SSW,212,7.0,11.5,90,0.00,,---,0.23,VWS V14.01,2013-06-03 03:57:00,